Hovedside
METAR-TAF:

METAR-TAF

Lufthavner :

Værøy, Norge

Værøy helikopterhavn

breddegrad: 67-39-16N, lengdegrad: 12-43-37E, høyde over havet: 5 m

Gjeldene værobservasjon

Denne rapporten ble laget for 4 timer og 12 minutter siden, klokken 06:50 UTC
Vind 17 kt fra Nordøst
Temperatur 3°C
Luftfuktighet 65%
Trykk 1010 hPa
Sikt 10 km eller mer
ingen skyer under 1500 m og ingen bygeskyer

METAR: ENVR 270650Z 04017KT CAVOK 03/M03 Q1010

Tid: 13:02 (11:02 UTC)


TAF: fraværende

Værobservasjoner og værvarsel for over 4000 flyplasser (METAR- og TAF-rapporter).

Tilgjengelige stasjoner er representert av de røde og gule prikkene på kartet.

Hold musepekeren over prikken for å se navnet på stasjonen.

Klikk så for å se værobservasjoner og -varsler.

For å forandre kartet kan du klikke på den grønne knappen med svart kryss for å zoome inn, på den grønne knappen med strek for å zoome ut, eller på de grønne pilene for å se tilstøtende kart.


METAR-TAF: